sensor_id;sensor_type;location;lat;lon;timestamp;P1;durP1;ratioP1;P2;durP2;ratioP2
21420;SDS011;10871;50.144;8.428;2022-08-03T00:01:24;5.97;;;2.80;;
21420;SDS011;10871;50.144;8.428;2022-08-03T00:03:51;3.00;;;2.80;;
21420;SDS011;10871;50.144;8.428;2022-08-03T00:06:17;3.88;;;3.00;;
21420;SDS011;10871;50.144;8.428;2022-08-03T00:08:43;3.40;;;3.10;;
21420;SDS011;10871;50.144;8.428;2022-08-03T00:11:10;3.40;;;3.10;;
21420;SDS011;10871;50.144;8.428;2022-08-03T00:13:36;3.30;;;3.00;;
21420;SDS011;10871;50.144;8.428;2022-08-03T00:16:02;3.85;;;2.97;;
21420;SDS011;10871;50.144;8.428;2022-08-03T00:18:29;5.18;;;3.05;;
21420;SDS011;10871;50.144;8.428;2022-08-03T00:20:55;3.55;;;3.25;;
21420;SDS011;10871;50.144;8.428;2022-08-03T00:23:22;4.32;;;3.30;;
21420;SDS011;10871;50.144;8.428;2022-08-03T00:25:48;3.30;;;3.00;;
21420;SDS011;10871;50.144;8.428;2022-08-03T00:28:14;3.75;;;3.45;;
21420;SDS011;10871;50.144;8.428;2022-08-03T00:30:41;3.63;;;3.20;;
21420;SDS011;10871;50.144;8.428;2022-08-03T00:33:09;3.45;;;3.15;;
21420;SDS011;10871;50.144;8.428;2022-08-03T00:35:36;3.25;;;3.03;;
21420;SDS011;10871;50.144;8.428;2022-08-03T00:38:16;3.90;;;3.30;;
21420;SDS011;10871;50.144;8.428;2022-08-03T00:40:42;3.95;;;3.55;;
21420;SDS011;10871;50.144;8.428;2022-08-03T00:43:09;4.78;;;3.45;;
21420;SDS011;10871;50.144;8.428;2022-08-03T00:45:37;3.85;;;3.53;;
21420;SDS011;10871;50.144;8.428;2022-08-03T00:48:04;3.72;;;3.22;;
21420;SDS011;10871;50.144;8.428;2022-08-03T00:50:44;3.22;;;3.00;;
21420;SDS011;10871;50.144;8.428;2022-08-03T00:53:16;4.05;;;3.25;;
21420;SDS011;10871;50.144;8.428;2022-08-03T00:55:43;3.85;;;3.53;;
21420;SDS011;10871;50.144;8.428;2022-08-03T00:58:10;4.13;;;3.78;;
21420;SDS011;10871;50.144;8.428;2022-08-03T01:00:37;4.28;;;3.13;;
21420;SDS011;10871;50.144;8.428;2022-08-03T01:03:05;7.18;;;2.85;;
21420;SDS011;10871;50.144;8.428;2022-08-03T01:05:33;3.25;;;2.67;;
21420;SDS011;10871;50.144;8.428;2022-08-03T01:13:16;3.60;;;3.30;;
21420;SDS011;10871;50.144;8.428;2022-08-03T01:16:11;3.90;;;3.40;;
21420;SDS011;10871;50.144;8.428;2022-08-03T01:18:44;5.15;;;3.20;;
21420;SDS011;10871;50.144;8.428;2022-08-03T01:21:13;8.52;;;3.38;;
21420;SDS011;10871;50.144;8.428;2022-08-03T01:31:38;5.00;;;3.13;;
21420;SDS011;10871;50.144;8.428;2022-08-03T01:34:26;3.65;;;3.30;;
21420;SDS011;10871;50.144;8.428;2022-08-03T01:36:53;3.30;;;2.92;;
21420;SDS011;10871;50.144;8.428;2022-08-03T01:39:22;3.25;;;3.05;;
21420;SDS011;10871;50.144;8.428;2022-08-03T01:41:50;3.38;;;2.83;;
21420;SDS011;10871;50.144;8.428;2022-08-03T01:44:18;3.13;;;2.80;;
21420;SDS011;10871;50.144;8.428;2022-08-03T01:46:57;3.78;;;2.88;;
21420;SDS011;10871;50.144;8.428;2022-08-03T01:49:24;3.47;;;3.17;;
21420;SDS011;10871;50.144;8.428;2022-08-03T01:51:51;3.63;;;3.33;;
21420;SDS011;10871;50.144;8.428;2022-08-03T01:54:34;6.63;;;3.50;;
21420;SDS011;10871;50.144;8.428;2022-08-03T01:57:01;3.30;;;3.00;;
21420;SDS011;10871;50.144;8.428;2022-08-03T01:59:27;3.22;;;2.92;;
21420;SDS011;10871;50.144;8.428;2022-08-03T02:01:55;3.28;;;2.97;;
21420;SDS011;10871;50.144;8.428;2022-08-03T02:04:42;4.90;;;2.67;;
21420;SDS011;10871;50.144;8.428;2022-08-03T02:07:10;2.58;;;2.38;;
21420;SDS011;10871;50.144;8.428;2022-08-03T02:09:37;2.85;;;2.60;;
21420;SDS011;10871;50.144;8.428;2022-08-03T02:12:08;2.88;;;2.63;;
21420;SDS011;10871;50.144;8.428;2022-08-03T02:14:35;3.30;;;3.00;;
21420;SDS011;10871;50.144;8.428;2022-08-03T02:17:02;3.78;;;3.20;;
21420;SDS011;10871;50.144;8.428;2022-08-03T02:19:29;3.72;;;3.33;;
21420;SDS011;10871;50.144;8.428;2022-08-03T02:22:01;4.07;;;3.75;;
21420;SDS011;10871;50.144;8.428;2022-08-03T02:24:28;3.92;;;3.50;;
21420;SDS011;10871;50.144;8.428;2022-08-03T02:26:54;4.10;;;3.70;;
21420;SDS011;10871;50.144;8.428;2022-08-03T02:29:22;3.80;;;3.50;;
21420;SDS011;10871;50.144;8.428;2022-08-03T02:32:04;3.90;;;3.60;;
21420;SDS011;10871;50.144;8.428;2022-08-03T02:34:33;6.53;;;3.60;;
21420;SDS011;10871;50.144;8.428;2022-08-03T02:37:00;3.92;;;3.45;;
21420;SDS011;10871;50.144;8.428;2022-08-03T02:39:29;3.60;;;3.30;;
21420;SDS011;10871;50.144;8.428;2022-08-03T02:41:56;3.83;;;3.53;;
21420;SDS011;10871;50.144;8.428;2022-08-03T02:44:29;5.30;;;3.88;;
21420;SDS011;10871;50.144;8.428;2022-08-03T02:46:59;4.45;;;3.45;;
21420;SDS011;10871;50.144;8.428;2022-08-03T02:49:26;3.80;;;3.50;;
21420;SDS011;10871;50.144;8.428;2022-08-03T02:52:13;6.55;;;3.65;;
21420;SDS011;10871;50.144;8.428;2022-08-03T02:54:42;4.75;;;3.65;;
21420;SDS011;10871;50.144;8.428;2022-08-03T02:57:09;4.15;;;3.67;;
21420;SDS011;10871;50.144;8.428;2022-08-03T02:59:36;4.70;;;3.58;;
21420;SDS011;10871;50.144;8.428;2022-08-03T03:02:04;3.70;;;3.40;;
21420;SDS011;10871;50.144;8.428;2022-08-03T03:04:30;5.68;;;4.03;;
21420;SDS011;10871;50.144;8.428;2022-08-03T03:06:58;4.15;;;3.80;;
21420;SDS011;10871;50.144;8.428;2022-08-03T03:09:27;5.05;;;3.97;;
21420;SDS011;10871;50.144;8.428;2022-08-03T03:12:07;4.00;;;3.70;;
21420;SDS011;10871;50.144;8.428;2022-08-03T03:14:35;3.80;;;3.50;;
21420;SDS011;10871;50.144;8.428;2022-08-03T03:17:02;3.75;;;3.45;;
21420;SDS011;10871;50.144;8.428;2022-08-03T03:19:29;4.57;;;3.78;;
21420;SDS011;10871;50.144;8.428;2022-08-03T03:21:58;3.72;;;3.42;;
21420;SDS011;10871;50.144;8.428;2022-08-03T03:24:25;4.10;;;3.80;;
21420;SDS011;10871;50.144;8.428;2022-08-03T03:26:52;4.28;;;3.75;;
21420;SDS011;10871;50.144;8.428;2022-08-03T03:29:19;5.38;;;3.80;;
21420;SDS011;10871;50.144;8.428;2022-08-03T03:31:46;4.65;;;3.63;;
21420;SDS011;10871;50.144;8.428;2022-08-03T03:34:12;5.10;;;3.70;;
21420;SDS011;10871;50.144;8.428;2022-08-03T03:36:39;4.22;;;3.63;;
21420;SDS011;10871;50.144;8.428;2022-08-03T03:39:05;4.10;;;3.80;;
21420;SDS011;10871;50.144;8.428;2022-08-03T03:41:41;4.22;;;3.83;;
21420;SDS011;10871;50.144;8.428;2022-08-03T03:44:08;4.30;;;3.90;;
21420;SDS011;10871;50.144;8.428;2022-08-03T03:46:34;3.67;;;3.38;;
21420;SDS011;10871;50.144;8.428;2022-08-03T03:49:01;4.43;;;3.40;;
21420;SDS011;10871;50.144;8.428;2022-08-03T03:51:27;4.65;;;4.03;;
21420;SDS011;10871;50.144;8.428;2022-08-03T03:53:57;4.47;;;3.72;;
21420;SDS011;10871;50.144;8.428;2022-08-03T03:56:24;3.90;;;3.60;;
21420;SDS011;10871;50.144;8.428;2022-08-03T03:58:51;4.97;;;3.50;;
21420;SDS011;10871;50.144;8.428;2022-08-03T04:01:17;3.85;;;3.53;;
21420;SDS011;10871;50.144;8.428;2022-08-03T04:03:44;4.07;;;3.78;;
21420;SDS011;10871;50.144;8.428;2022-08-03T04:06:10;4.18;;;3.78;;
21420;SDS011;10871;50.144;8.428;2022-08-03T04:08:55;3.95;;;3.63;;
21420;SDS011;10871;50.144;8.428;2022-08-03T04:11:50;6.80;;;4.07;;
21420;SDS011;10871;50.144;8.428;2022-08-03T04:14:24;5.43;;;3.33;;
21420;SDS011;10871;50.144;8.428;2022-08-03T04:17:09;3.45;;;3.15;;
21420;SDS011;10871;50.144;8.428;2022-08-03T04:19:39;5.47;;;3.30;;
21420;SDS011;10871;50.144;8.428;2022-08-03T04:22:11;4.75;;;3.60;;
21420;SDS011;10871;50.144;8.428;2022-08-03T04:24:40;4.63;;;3.30;;
21420;SDS011;10871;50.144;8.428;2022-08-03T04:27:08;5.20;;;3.65;;
21420;SDS011;10871;50.144;8.428;2022-08-03T04:29:36;4.55;;;3.70;;
21420;SDS011;10871;50.144;8.428;2022-08-03T04:32:14;4.28;;;3.33;;
21420;SDS011;10871;50.144;8.428;2022-08-03T04:34:41;3.42;;;3.13;;
21420;SDS011;10871;50.144;8.428;2022-08-03T04:37:11;3.80;;;3.42;;
21420;SDS011;10871;50.144;8.428;2022-08-03T04:39:41;4.43;;;3.60;;
21420;SDS011;10871;50.144;8.428;2022-08-03T04:42:08;5.10;;;3.30;;
21420;SDS011;10871;50.144;8.428;2022-08-03T04:44:37;3.92;;;3.63;;
21420;SDS011;10871;50.144;8.428;2022-08-03T04:47:04;4.18;;;3.47;;
21420;SDS011;10871;50.144;8.428;2022-08-03T04:49:30;3.50;;;3.20;;
21420;SDS011;10871;50.144;8.428;2022-08-03T04:51:57;4.70;;;3.35;;
21420;SDS011;10871;50.144;8.428;2022-08-03T04:54:23;4.70;;;3.35;;
21420;SDS011;10871;50.144;8.428;2022-08-03T04:56:50;4.25;;;3.30;;
21420;SDS011;10871;50.144;8.428;2022-08-03T04:59:16;4.88;;;3.58;;
21420;SDS011;10871;50.144;8.428;2022-08-03T05:01:42;4.80;;;3.25;;
21420;SDS011;10871;50.144;8.428;2022-08-03T05:04:09;4.40;;;3.20;;
21420;SDS011;10871;50.144;8.428;2022-08-03T05:06:35;3.13;;;2.83;;
21420;SDS011;10871;50.144;8.428;2022-08-03T05:09:13;3.53;;;3.22;;
21420;SDS011;10871;50.144;8.428;2022-08-03T05:11:39;3.22;;;2.92;;
21420;SDS011;10871;50.144;8.428;2022-08-03T05:14:06;6.85;;;3.15;;
21420;SDS011;10871;50.144;8.428;2022-08-03T05:16:32;3.47;;;3.17;;
21420;SDS011;10871;50.144;8.428;2022-08-03T05:18:58;8.07;;;3.35;;
21420;SDS011;10871;50.144;8.428;2022-08-03T05:21:25;3.50;;;3.20;;
21420;SDS011;10871;50.144;8.428;2022-08-03T05:24:11;3.53;;;3.22;;
21420;SDS011;10871;50.144;8.428;2022-08-03T05:26:37;4.97;;;3.40;;
21420;SDS011;10871;50.144;8.428;2022-08-03T05:29:04;3.53;;;3.10;;
21420;SDS011;10871;50.144;8.428;2022-08-03T05:31:30;4.28;;;3.50;;
21420;SDS011;10871;50.144;8.428;2022-08-03T05:33:56;3.72;;;3.35;;
21420;SDS011;10871;50.144;8.428;2022-08-03T05:36:23;6.20;;;3.63;;
21420;SDS011;10871;50.144;8.428;2022-08-03T05:38:49;4.28;;;3.00;;
21420;SDS011;10871;50.144;8.428;2022-08-03T05:41:16;3.20;;;2.90;;
21420;SDS011;10871;50.144;8.428;2022-08-03T05:43:52;4.68;;;3.10;;
21420;SDS011;10871;50.144;8.428;2022-08-03T05:46:19;3.80;;;2.95;;
21420;SDS011;10871;50.144;8.428;2022-08-03T05:48:46;4.10;;;2.80;;
21420;SDS011;10871;50.144;8.428;2022-08-03T05:51:12;2.78;;;2.58;;
21420;SDS011;10871;50.144;8.428;2022-08-03T05:53:39;4.43;;;2.85;;
21420;SDS011;10871;50.144;8.428;2022-08-03T05:56:06;4.38;;;2.95;;
21420;SDS011;10871;50.144;8.428;2022-08-03T05:58:44;3.28;;;2.95;;
21420;SDS011;10871;50.144;8.428;2022-08-03T06:01:11;3.55;;;2.80;;
21420;SDS011;10871;50.144;8.428;2022-08-03T06:03:38;3.33;;;3.00;;
21420;SDS011;10871;50.144;8.428;2022-08-03T06:06:04;4.90;;;3.05;;
21420;SDS011;10871;50.144;8.428;2022-08-03T06:08:31;3.58;;;3.20;;
21420;SDS011;10871;50.144;8.428;2022-08-03T06:10:57;4.18;;;3.10;;
21420;SDS011;10871;50.144;8.428;2022-08-03T06:13:23;4.53;;;3.20;;
21420;SDS011;10871;50.144;8.428;2022-08-03T06:15:50;3.47;;;2.95;;
21420;SDS011;10871;50.144;8.428;2022-08-03T06:18:16;6.00;;;3.33;;
21420;SDS011;10871;50.144;8.428;2022-08-03T06:20:43;6.22;;;3.58;;
21420;SDS011;10871;50.144;8.428;2022-08-03T06:23:09;3.97;;;3.10;;
21420;SDS011;10871;50.144;8.428;2022-08-03T06:25:41;5.38;;;3.10;;
21420;SDS011;10871;50.144;8.428;2022-08-03T06:28:08;6.03;;;3.30;;
21420;SDS011;10871;50.144;8.428;2022-08-03T06:30:49;5.45;;;3.65;;
21420;SDS011;10871;50.144;8.428;2022-08-03T06:33:15;3.78;;;3.42;;
21420;SDS011;10871;50.144;8.428;2022-08-03T06:35:42;3.30;;;3.00;;
21420;SDS011;10871;50.144;8.428;2022-08-03T06:38:10;3.40;;;3.10;;
21420;SDS011;10871;50.144;8.428;2022-08-03T06:40:38;7.03;;;3.38;;
21420;SDS011;10871;50.144;8.428;2022-08-03T06:43:05;3.45;;;3.05;;
21420;SDS011;10871;50.144;8.428;2022-08-03T06:45:37;4.25;;;3.80;;
21420;SDS011;10871;50.144;8.428;2022-08-03T06:48:05;4.18;;;2.90;;
21420;SDS011;10871;50.144;8.428;2022-08-03T06:50:32;2.90;;;2.60;;
21420;SDS011;10871;50.144;8.428;2022-08-03T06:52:59;5.88;;;2.92;;
21420;SDS011;10871;50.144;8.428;2022-08-03T06:55:25;3.72;;;2.92;;
21420;SDS011;10871;50.144;8.428;2022-08-03T06:57:52;5.80;;;3.03;;
21420;SDS011;10871;50.144;8.428;2022-08-03T07:00:18;2.95;;;2.65;;
21420;SDS011;10871;50.144;8.428;2022-08-03T07:02:45;4.68;;;2.97;;
21420;SDS011;10871;50.144;8.428;2022-08-03T07:05:12;6.03;;;3.47;;
21420;SDS011;10871;50.144;8.428;2022-08-03T07:07:38;4.30;;;2.70;;
21420;SDS011;10871;50.144;8.428;2022-08-03T07:10:05;3.28;;;2.90;;
21420;SDS011;10871;50.144;8.428;2022-08-03T07:12:32;4.57;;;2.63;;
21420;SDS011;10871;50.144;8.428;2022-08-03T07:14:59;4.10;;;3.08;;
21420;SDS011;10871;50.144;8.428;2022-08-03T07:17:28;2.75;;;2.55;;
21420;SDS011;10871;50.144;8.428;2022-08-03T07:19:55;4.35;;;3.03;;
21420;SDS011;10871;50.144;8.428;2022-08-03T07:22:21;3.00;;;2.58;;
21420;SDS011;10871;50.144;8.428;2022-08-03T07:24:48;6.07;;;2.58;;
21420;SDS011;10871;50.144;8.428;2022-08-03T07:27:15;4.13;;;2.53;;
21420;SDS011;10871;50.144;8.428;2022-08-03T07:29:41;3.92;;;2.30;;
21420;SDS011;10871;50.144;8.428;2022-08-03T07:32:08;4.10;;;2.35;;
21420;SDS011;10871;50.144;8.428;2022-08-03T07:34:34;4.38;;;2.50;;
21420;SDS011;10871;50.144;8.428;2022-08-03T07:37:00;5.18;;;2.30;;
21420;SDS011;10871;50.144;8.428;2022-08-03T07:39:27;4.65;;;2.20;;
21420;SDS011;10871;50.144;8.428;2022-08-03T07:41:53;5.47;;;2.20;;
21420;SDS011;10871;50.144;8.428;2022-08-03T07:44:20;2.95;;;2.40;;
21420;SDS011;10871;50.144;8.428;2022-08-03T07:46:46;2.60;;;2.28;;
21420;SDS011;10871;50.144;8.428;2022-08-03T07:49:13;4.03;;;2.10;;
21420;SDS011;10871;50.144;8.428;2022-08-03T07:51:39;5.53;;;2.10;;
21420;SDS011;10871;50.144;8.428;2022-08-03T07:54:06;2.55;;;2.13;;
21420;SDS011;10871;50.144;8.428;2022-08-03T07:56:32;4.28;;;2.40;;
21420;SDS011;10871;50.144;8.428;2022-08-03T07:58:59;3.45;;;2.22;;
21420;SDS011;10871;50.144;8.428;2022-08-03T08:01:25;2.78;;;2.20;;
21420;SDS011;10871;50.144;8.428;2022-08-03T08:03:51;4.60;;;2.20;;
21420;SDS011;10871;50.144;8.428;2022-08-03T08:06:19;3.40;;;2.08;;
21420;SDS011;10871;50.144;8.428;2022-08-03T08:08:45;3.03;;;2.20;;
21420;SDS011;10871;50.144;8.428;2022-08-03T08:11:12;2.40;;;2.20;;
21420;SDS011;10871;50.144;8.428;2022-08-03T08:13:38;3.42;;;2.20;;
21420;SDS011;10871;50.144;8.428;2022-08-03T08:16:04;3.80;;;1.92;;
21420;SDS011;10871;50.144;8.428;2022-08-03T08:18:31;2.90;;;2.10;;
21420;SDS011;10871;50.144;8.428;2022-08-03T08:20:58;2.30;;;2.10;;
21420;SDS011;10871;50.144;8.428;2022-08-03T08:23:26;4.00;;;2.47;;
21420;SDS011;10871;50.144;8.428;2022-08-03T08:26:09;3.63;;;2.17;;
21420;SDS011;10871;50.144;8.428;2022-08-03T08:28:35;4.20;;;2.20;;
21420;SDS011;10871;50.144;8.428;2022-08-03T08:31:02;5.78;;;2.20;;
21420;SDS011;10871;50.144;8.428;2022-08-03T08:33:28;4.15;;;2.20;;
21420;SDS011;10871;50.144;8.428;2022-08-03T08:36:15;2.45;;;2.25;;
21420;SDS011;10871;50.144;8.428;2022-08-03T08:38:42;3.30;;;2.50;;
21420;SDS011;10871;50.144;8.428;2022-08-03T08:41:10;4.07;;;2.30;;
21420;SDS011;10871;50.144;8.428;2022-08-03T08:43:36;4.60;;;2.33;;
21420;SDS011;10871;50.144;8.428;2022-08-03T08:46:03;3.63;;;2.30;;
21420;SDS011;10871;50.144;8.428;2022-08-03T08:48:30;2.72;;;2.25;;
21420;SDS011;10871;50.144;8.428;2022-08-03T08:50:57;2.30;;;2.10;;
21420;SDS011;10871;50.144;8.428;2022-08-03T08:53:25;3.83;;;2.40;;
21420;SDS011;10871;50.144;8.428;2022-08-03T08:55:54;4.03;;;2.60;;
21420;SDS011;10871;50.144;8.428;2022-08-03T08:58:25;4.55;;;2.40;;
21420;SDS011;10871;50.144;8.428;2022-08-03T09:00:53;2.97;;;2.25;;
21420;SDS011;10871;50.144;8.428;2022-08-03T09:03:20;4.85;;;2.40;;
21420;SDS011;10871;50.144;8.428;2022-08-03T09:05:55;5.07;;;2.50;;
21420;SDS011;10871;50.144;8.428;2022-08-03T09:08:22;2.58;;;2.30;;
21420;SDS011;10871;50.144;8.428;2022-08-03T09:10:48;4.32;;;2.35;;
21420;SDS011;10871;50.144;8.428;2022-08-03T09:13:15;5.82;;;2.40;;
21420;SDS011;10871;50.144;8.428;2022-08-03T09:15:41;7.03;;;2.40;;
21420;SDS011;10871;50.144;8.428;2022-08-03T09:18:28;2.88;;;2.17;;
21420;SDS011;10871;50.144;8.428;2022-08-03T09:23:57;2.70;;;2.00;;
21420;SDS011;10871;50.144;8.428;2022-08-03T09:26:29;4.75;;;1.90;;
21420;SDS011;10871;50.144;8.428;2022-08-03T09:29:03;2.22;;;1.95;;
21420;SDS011;10871;50.144;8.428;2022-08-03T09:31:39;2.83;;;1.90;;
21420;SDS011;10871;50.144;8.428;2022-08-03T09:34:10;3.28;;;2.00;;
21420;SDS011;10871;50.144;8.428;2022-08-03T09:36:40;5.78;;;2.10;;
21420;SDS011;10871;50.144;8.428;2022-08-03T09:39:15;2.05;;;1.88;;
21420;SDS011;10871;50.144;8.428;2022-08-03T09:42:04;8.75;;;2.10;;
21420;SDS011;10871;50.144;8.428;2022-08-03T09:44:38;2.30;;;1.85;;
21420;SDS011;10871;50.144;8.428;2022-08-03T09:47:08;3.75;;;1.90;;
21420;SDS011;10871;50.144;8.428;2022-08-03T09:49:38;2.95;;;1.80;;
21420;SDS011;10871;50.144;8.428;2022-08-03T09:52:13;4.00;;;2.10;;
21420;SDS011;10871;50.144;8.428;2022-08-03T09:55:01;4.57;;;2.30;;
21420;SDS011;10871;50.144;8.428;2022-08-03T09:57:28;1.95;;;1.85;;
21420;SDS011;10871;50.144;8.428;2022-08-03T10:00:04;2.15;;;2.05;;
21420;SDS011;10871;50.144;8.428;2022-08-03T10:02:40;3.83;;;2.10;;
21420;SDS011;10871;50.144;8.428;2022-08-03T10:05:07;1.85;;;1.75;;
21420;SDS011;10871;50.144;8.428;2022-08-03T10:07:45;3.65;;;2.20;;
21420;SDS011;10871;50.144;8.428;2022-08-03T10:10:12;2.13;;;1.88;;
21420;SDS011;10871;50.144;8.428;2022-08-03T10:12:57;2.70;;;1.88;;
21420;SDS011;10871;50.144;8.428;2022-08-03T10:15:24;4.75;;;1.65;;
21420;SDS011;10871;50.144;8.428;2022-08-03T10:18:11;2.75;;;1.60;;
21420;SDS011;10871;50.144;8.428;2022-08-03T10:20:45;2.22;;;1.92;;
21420;SDS011;10871;50.144;8.428;2022-08-03T10:23:11;5.03;;;2.03;;
21420;SDS011;10871;50.144;8.428;2022-08-03T10:25:39;2.92;;;2.17;;
21420;SDS011;10871;50.144;8.428;2022-08-03T10:28:07;3.13;;;2.10;;
21420;SDS011;10871;50.144;8.428;2022-08-03T10:30:38;2.65;;;2.10;;
21420;SDS011;10871;50.144;8.428;2022-08-03T10:33:12;2.30;;;2.10;;
21420;SDS011;10871;50.144;8.428;2022-08-03T10:36:00;2.67;;;2.03;;
21420;SDS011;10871;50.144;8.428;2022-08-03T10:38:37;6.28;;;2.20;;
21420;SDS011;10871;50.144;8.428;2022-08-03T10:41:03;2.50;;;1.90;;
21420;SDS011;10871;50.144;8.428;2022-08-03T10:46:14;2.63;;;2.10;;
21420;SDS011;10871;50.144;8.428;2022-08-03T10:48:42;2.20;;;2.00;;
21420;SDS011;10871;50.144;8.428;2022-08-03T10:51:08;3.47;;;1.90;;
21420;SDS011;10871;50.144;8.428;2022-08-03T10:53:36;2.40;;;2.20;;
21420;SDS011;10871;50.144;8.428;2022-08-03T10:56:03;2.28;;;2.08;;
21420;SDS011;10871;50.144;8.428;2022-08-03T10:59:08;2.25;;;2.00;;
21420;SDS011;10871;50.144;8.428;2022-08-03T11:01:52;3.00;;;2.00;;
21420;SDS011;10871;50.144;8.428;2022-08-03T11:04:25;2.78;;;2.00;;
21420;SDS011;10871;50.144;8.428;2022-08-03T11:09:40;2.10;;;1.90;;
21420;SDS011;10871;50.144;8.428;2022-08-03T11:12:20;4.10;;;2.00;;
21420;SDS011;10871;50.144;8.428;2022-08-03T11:14:54;2.88;;;1.95;;
21420;SDS011;10871;50.144;8.428;2022-08-03T11:17:21;3.05;;;1.83;;
21420;SDS011;10871;50.144;8.428;2022-08-03T11:19:48;2.50;;;2.03;;
21420;SDS011;10871;50.144;8.428;2022-08-03T11:22:23;3.95;;;2.03;;
21420;SDS011;10871;50.144;8.428;2022-08-03T11:27:23;2.20;;;2.03;;
21420;SDS011;10871;50.144;8.428;2022-08-03T11:30:00;2.70;;;1.90;;
21420;SDS011;10871;50.144;8.428;2022-08-03T11:35:07;3.67;;;1.83;;
21420;SDS011;10871;50.144;8.428;2022-08-03T11:37:34;3.55;;;1.90;;
21420;SDS011;10871;50.144;8.428;2022-08-03T11:40:01;2.47;;;1.85;;
21420;SDS011;10871;50.144;8.428;2022-08-03T11:44:58;4.88;;;2.10;;
21420;SDS011;10871;50.144;8.428;2022-08-03T11:47:26;3.50;;;1.90;;
21420;SDS011;10871;50.144;8.428;2022-08-03T11:49:54;2.92;;;1.67;;
21420;SDS011;10871;50.144;8.428;2022-08-03T11:52:20;1.80;;;1.65;;
21420;SDS011;10871;50.144;8.428;2022-08-03T11:54:54;2.85;;;1.70;;
21420;SDS011;10871;50.144;8.428;2022-08-03T11:57:32;1.70;;;1.60;;
21420;SDS011;10871;50.144;8.428;2022-08-03T12:00:29;3.50;;;2.10;;
21420;SDS011;10871;50.144;8.428;2022-08-03T12:02:56;2.90;;;1.70;;
21420;SDS011;10871;50.144;8.428;2022-08-03T12:05:33;2.38;;;1.70;;
21420;SDS011;10871;50.144;8.428;2022-08-03T12:08:00;2.03;;;1.63;;
21420;SDS011;10871;50.144;8.428;2022-08-03T12:10:31;1.73;;;1.63;;
21420;SDS011;10871;50.144;8.428;2022-08-03T12:12:58;2.05;;;1.60;;
21420;SDS011;10871;50.144;8.428;2022-08-03T12:15:28;1.80;;;1.70;;
21420;SDS011;10871;50.144;8.428;2022-08-03T12:17:55;4.63;;;2.13;;
21420;SDS011;10871;50.144;8.428;2022-08-03T12:20:24;2.38;;;1.77;;
21420;SDS011;10871;50.144;8.428;2022-08-03T12:23:04;1.85;;;1.75;;
21420;SDS011;10871;50.144;8.428;2022-08-03T12:25:31;4.15;;;1.63;;
21420;SDS011;10871;50.144;8.428;2022-08-03T12:31:04;3.65;;;1.83;;
21420;SDS011;10871;50.144;8.428;2022-08-03T12:33:32;4.78;;;1.80;;
21420;SDS011;10871;50.144;8.428;2022-08-03T12:36:18;3.53;;;1.70;;
21420;SDS011;10871;50.144;8.428;2022-08-03T12:38:52;1.70;;;1.60;;
21420;SDS011;10871;50.144;8.428;2022-08-03T12:41:25;1.85;;;1.73;;
21420;SDS011;10871;50.144;8.428;2022-08-03T12:43:52;1.58;;;1.48;;
21420;SDS011;10871;50.144;8.428;2022-08-03T12:46:20;3.67;;;1.98;;
21420;SDS011;10871;50.144;8.428;2022-08-03T12:48:59;2.20;;;2.00;;
21420;SDS011;10871;50.144;8.428;2022-08-03T12:51:26;3.55;;;1.90;;
21420;SDS011;10871;50.144;8.428;2022-08-03T12:53:53;3.08;;;1.80;;
21420;SDS011;10871;50.144;8.428;2022-08-03T12:56:20;2.50;;;1.70;;
21420;SDS011;10871;50.144;8.428;2022-08-03T12:58:46;1.98;;;1.70;;
21420;SDS011;10871;50.144;8.428;2022-08-03T13:01:13;2.80;;;1.60;;
21420;SDS011;10871;50.144;8.428;2022-08-03T13:03:40;2.38;;;1.60;;
21420;SDS011;10871;50.144;8.428;2022-08-03T13:06:12;3.58;;;1.80;;
21420;SDS011;10871;50.144;8.428;2022-08-03T13:08:38;2.40;;;1.90;;
21420;SDS011;10871;50.144;8.428;2022-08-03T13:11:24;1.90;;;1.50;;
21420;SDS011;10871;50.144;8.428;2022-08-03T13:14:11;1.80;;;1.70;;
21420;SDS011;10871;50.144;8.428;2022-08-03T13:16:45;3.50;;;1.77;;
21420;SDS011;10871;50.144;8.428;2022-08-03T13:19:11;2.08;;;1.75;;
21420;SDS011;10871;50.144;8.428;2022-08-03T13:21:41;2.03;;;1.75;;
21420;SDS011;10871;50.144;8.428;2022-08-03T13:24:28;2.85;;;1.65;;
21420;SDS011;10871;50.144;8.428;2022-08-03T13:26:55;1.88;;;1.70;;
21420;SDS011;10871;50.144;8.428;2022-08-03T13:29:22;1.70;;;1.60;;
21420;SDS011;10871;50.144;8.428;2022-08-03T13:31:48;1.83;;;1.50;;
21420;SDS011;10871;50.144;8.428;2022-08-03T13:34:16;2.13;;;1.52;;
21420;SDS011;10871;50.144;8.428;2022-08-03T13:36:48;3.10;;;1.58;;
21420;SDS011;10871;50.144;8.428;2022-08-03T13:39:34;1.80;;;1.67;;
21420;SDS011;10871;50.144;8.428;2022-08-03T13:42:21;2.30;;;1.23;;
21420;SDS011;10871;50.144;8.428;2022-08-03T13:44:47;1.40;;;1.30;;
21420;SDS011;10871;50.144;8.428;2022-08-03T13:47:14;1.42;;;1.17;;
21420;SDS011;10871;50.144;8.428;2022-08-03T13:49:40;2.13;;;1.25;;
21420;SDS011;10871;50.144;8.428;2022-08-03T13:52:19;1.55;;;1.30;;
21420;SDS011;10871;50.144;8.428;2022-08-03T13:54:46;1.92;;;1.33;;
21420;SDS011;10871;50.144;8.428;2022-08-03T13:57:13;3.45;;;1.50;;
21420;SDS011;10871;50.144;8.428;2022-08-03T14:00:00;3.75;;;1.55;;
21420;SDS011;10871;50.144;8.428;2022-08-03T14:02:29;1.40;;;1.30;;
21420;SDS011;10871;50.144;8.428;2022-08-03T14:04:55;2.28;;;1.17;;
21420;SDS011;10871;50.144;8.428;2022-08-03T14:07:22;1.42;;;1.10;;
21420;SDS011;10871;50.144;8.428;2022-08-03T14:09:48;3.85;;;1.30;;
21420;SDS011;10871;50.144;8.428;2022-08-03T14:12:14;1.77;;;1.27;;
21420;SDS011;10871;50.144;8.428;2022-08-03T14:14:41;1.10;;;1.10;;
21420;SDS011;10871;50.144;8.428;2022-08-03T14:17:07;1.27;;;1.20;;
21420;SDS011;10871;50.144;8.428;2022-08-03T14:19:34;1.30;;;1.20;;
21420;SDS011;10871;50.144;8.428;2022-08-03T14:22:18;1.52;;;1.20;;
21420;SDS011;10871;50.144;8.428;2022-08-03T14:24:45;2.22;;;1.33;;
21420;SDS011;10871;50.144;8.428;2022-08-03T14:27:11;1.20;;;1.10;;
21420;SDS011;10871;50.144;8.428;2022-08-03T14:29:38;1.30;;;1.20;;
21420;SDS011;10871;50.144;8.428;2022-08-03T14:32:04;3.58;;;1.30;;
21420;SDS011;10871;50.144;8.428;2022-08-03T14:34:38;1.02;;;1.00;;
21420;SDS011;10871;50.144;8.428;2022-08-03T14:37:04;1.30;;;1.20;;
21420;SDS011;10871;50.144;8.428;2022-08-03T14:39:31;1.38;;;1.20;;
21420;SDS011;10871;50.144;8.428;2022-08-03T14:42:17;5.15;;;1.30;;
21420;SDS011;10871;50.144;8.428;2022-08-03T14:44:45;2.75;;;1.30;;
21420;SDS011;10871;50.144;8.428;2022-08-03T14:47:12;1.33;;;1.20;;
21420;SDS011;10871;50.144;8.428;2022-08-03T14:49:38;1.38;;;1.27;;
21420;SDS011;10871;50.144;8.428;2022-08-03T14:52:24;2.45;;;1.33;;
21420;SDS011;10871;50.144;8.428;2022-08-03T14:54:51;2.22;;;1.35;;
21420;SDS011;10871;50.144;8.428;2022-08-03T14:57:17;2.17;;;1.30;;
21420;SDS011;10871;50.144;8.428;2022-08-03T14:59:44;5.00;;;1.40;;
21420;SDS011;10871;50.144;8.428;2022-08-03T15:02:22;1.50;;;1.40;;
21420;SDS011;10871;50.144;8.428;2022-08-03T15:04:49;2.88;;;1.50;;
21420;SDS011;10871;50.144;8.428;2022-08-03T15:07:16;1.50;;;1.25;;
21420;SDS011;10871;50.144;8.428;2022-08-03T15:09:43;1.48;;;1.30;;
21420;SDS011;10871;50.144;8.428;2022-08-03T15:12:09;1.98;;;1.50;;
21420;SDS011;10871;50.144;8.428;2022-08-03T15:14:35;2.75;;;1.50;;
21420;SDS011;10871;50.144;8.428;2022-08-03T15:17:03;1.70;;;1.60;;
21420;SDS011;10871;50.144;8.428;2022-08-03T15:19:30;2.33;;;1.35;;
21420;SDS011;10871;50.144;8.428;2022-08-03T15:22:16;2.28;;;1.30;;
21420;SDS011;10871;50.144;8.428;2022-08-03T15:24:50;2.72;;;1.30;;
21420;SDS011;10871;50.144;8.428;2022-08-03T15:27:17;3.83;;;1.50;;
21420;SDS011;10871;50.144;8.428;2022-08-03T15:29:44;3.40;;;1.27;;
21420;SDS011;10871;50.144;8.428;2022-08-03T15:32:31;2.92;;;1.48;;
21420;SDS011;10871;50.144;8.428;2022-08-03T15:34:58;1.40;;;1.30;;
21420;SDS011;10871;50.144;8.428;2022-08-03T15:37:25;2.38;;;1.30;;